createdAt,value
2022-12-22T00:02:01.199Z,4.72
2022-12-22T00:04:47.306Z,3.88
2022-12-22T00:07:33.140Z,2.53
2022-12-22T00:10:19.184Z,1.40
2022-12-22T00:13:05.386Z,1.23
2022-12-22T00:15:53.733Z,1.75
2022-12-22T00:18:39.596Z,1.10
2022-12-22T00:21:25.909Z,1.02
2022-12-22T00:24:11.796Z,1.33
2022-12-22T00:26:58.044Z,1.55
2022-12-22T00:29:43.993Z,2.38
2022-12-22T00:32:33.419Z,3.20
2022-12-22T00:35:19.862Z,3.67
2022-12-22T00:38:07.181Z,4.03
2022-12-22T00:40:55.601Z,5.63
2022-12-22T00:43:41.408Z,5.38
2022-12-22T00:46:29.000Z,6.60
2022-12-22T00:49:17.369Z,5.70
2022-12-22T00:52:03.340Z,6.50
2022-12-22T00:54:49.076Z,6.25
2022-12-22T00:57:37.011Z,6.97
2022-12-22T01:00:23.706Z,6.65
2022-12-22T01:03:09.851Z,5.07
2022-12-22T01:05:56.026Z,7.25
2022-12-22T01:08:41.825Z,6.65
2022-12-22T01:11:27.917Z,6.75
2022-12-22T01:14:13.885Z,7.40
2022-12-22T01:16:59.782Z,6.20
2022-12-22T01:19:45.612Z,6.72
2022-12-22T01:22:32.442Z,5.43
2022-12-22T01:25:18.313Z,5.80
2022-12-22T01:28:04.219Z,5.13
2022-12-22T01:30:50.220Z,5.65
2022-12-22T01:33:38.684Z,4.22
2022-12-22T01:36:25.035Z,4.13
2022-12-22T01:39:10.781Z,2.85
2022-12-22T01:41:56.534Z,2.58
2022-12-22T01:44:42.293Z,2.22
2022-12-22T01:47:57.146Z,1.80
2022-12-22T01:50:48.074Z,1.30
2022-12-22T01:53:44.945Z,1.88
2022-12-22T01:56:31.131Z,1.73
2022-12-22T01:59:21.482Z,2.30
2022-12-22T02:02:09.791Z,2.10
2022-12-22T02:04:57.057Z,1.63
2022-12-22T02:08:01.700Z,1.63
2022-12-22T02:11:09.062Z,1.60
2022-12-22T02:14:04.005Z,1.20
2022-12-22T02:17:12.611Z,1.30
2022-12-22T02:20:10.161Z,2.13
2022-12-22T02:23:11.188Z,1.08
2022-12-22T02:26:01.039Z,1.20
2022-12-22T02:28:46.940Z,1.10
2022-12-22T02:31:32.884Z,0.90
2022-12-22T02:34:18.725Z,0.52
2022-12-22T02:37:19.431Z,0.50
2022-12-22T02:40:17.485Z,0.60
2022-12-22T02:43:14.885Z,0.50
2022-12-22T02:46:08.820Z,0.60
2022-12-22T02:49:04.752Z,0.68
2022-12-22T02:51:53.211Z,0.50
2022-12-22T02:54:40.126Z,0.40
2022-12-22T02:57:26.420Z,0.65
2022-12-22T03:00:12.517Z,0.57
2022-12-22T03:02:58.502Z,0.30
2022-12-22T03:05:44.797Z,0.45
2022-12-22T03:08:31.168Z,0.32
2022-12-22T03:11:16.822Z,0.43
2022-12-22T03:14:02.593Z,0.60
2022-12-22T03:16:48.398Z,0.57
2022-12-22T03:19:35.521Z,0.50
2022-12-22T03:22:21.222Z,0.60
2022-12-22T03:25:06.993Z,0.57
2022-12-22T03:27:34.182Z,0.80
2022-12-22T03:30:01.308Z,0.70
2022-12-22T03:32:28.454Z,0.68
2022-12-22T03:34:55.698Z,0.85
2022-12-22T03:37:22.926Z,0.80
2022-12-22T03:39:50.110Z,0.80
2022-12-22T03:42:36.255Z,1.60
2022-12-22T03:45:22.201Z,1.10
2022-12-22T03:47:49.332Z,0.80
2022-12-22T03:50:16.535Z,0.90
2022-12-22T03:52:43.686Z,0.88
2022-12-22T03:55:10.982Z,0.88
2022-12-22T03:57:40.551Z,0.85
2022-12-22T04:00:10.550Z,0.80
2022-12-22T04:02:37.805Z,1.08
2022-12-22T04:05:05.337Z,1.00
2022-12-22T04:07:32.476Z,0.80
2022-12-22T04:10:18.658Z,0.80
2022-12-22T04:12:55.153Z,1.02
2022-12-22T04:15:26.458Z,1.15
2022-12-22T04:17:53.942Z,1.10
2022-12-22T04:20:22.187Z,1.58
2022-12-22T04:22:49.369Z,1.20
2022-12-22T04:25:19.062Z,1.38
2022-12-22T04:27:46.232Z,1.25
2022-12-22T04:30:13.703Z,1.50
2022-12-22T04:32:40.884Z,1.70
2022-12-22T04:35:08.483Z,1.20
2022-12-22T04:37:38.114Z,1.23
2022-12-22T04:40:05.581Z,1.50
2022-12-22T04:42:32.741Z,1.80
2022-12-22T04:44:59.917Z,1.70
2022-12-22T04:47:27.066Z,1.58
2022-12-22T04:49:55.760Z,2.35
2022-12-22T04:52:23.383Z,2.22
2022-12-22T04:54:50.601Z,4.78
2022-12-22T04:57:17.787Z,3.30
2022-12-22T04:59:44.915Z,3.40
2022-12-22T05:02:12.297Z,3.47
2022-12-22T05:04:39.666Z,3.30
2022-12-22T05:07:07.810Z,2.95
2022-12-22T05:09:35.034Z,3.30
2022-12-22T05:12:22.195Z,3.75
2022-12-22T05:14:49.711Z,2.83
2022-12-22T05:17:16.864Z,3.13
2022-12-22T05:19:44.164Z,3.60
2022-12-22T05:22:11.331Z,4.25
2022-12-22T05:24:38.472Z,7.18
2022-12-22T05:27:05.651Z,6.10
2022-12-22T05:29:32.857Z,5.22
2022-12-22T05:32:00.070Z,4.65
2022-12-22T05:34:27.377Z,4.30
2022-12-22T05:36:54.556Z,4.82
2022-12-22T05:39:21.717Z,3.90
2022-12-22T05:41:48.918Z,3.20
2022-12-22T05:44:16.107Z,3.55
2022-12-22T05:46:43.322Z,2.90
2022-12-22T05:49:10.502Z,3.17
2022-12-22T05:51:37.651Z,3.03
2022-12-22T05:54:04.799Z,3.35
2022-12-22T05:56:31.962Z,3.33
2022-12-22T05:58:59.096Z,3.35
2022-12-22T06:01:26.329Z,2.50
2022-12-22T06:03:59.748Z,3.28
2022-12-22T06:06:27.753Z,2.72
2022-12-22T06:08:54.958Z,2.90
2022-12-22T06:11:22.135Z,4.15
2022-12-22T06:13:49.319Z,3.22
2022-12-22T06:16:16.537Z,2.65
2022-12-22T06:18:43.828Z,1.70
2022-12-22T06:21:10.933Z,1.65
2022-12-22T06:23:38.057Z,2.45
2022-12-22T06:26:05.276Z,2.28
2022-12-22T06:28:32.520Z,2.90
2022-12-22T06:30:59.803Z,2.47
2022-12-22T06:33:27.045Z,2.30
2022-12-22T06:35:58.901Z,2.25
2022-12-22T06:38:27.334Z,2.00
2022-12-22T06:40:54.601Z,1.17
2022-12-22T06:43:21.756Z,1.17
2022-12-22T06:45:48.957Z,1.00
2022-12-22T06:48:16.130Z,1.08
2022-12-22T06:50:43.285Z,1.25
2022-12-22T06:53:11.118Z,1.52
2022-12-22T06:55:38.595Z,1.42
2022-12-22T06:58:06.296Z,1.25
2022-12-22T07:00:33.721Z,1.63
2022-12-22T07:03:01.282Z,1.30
2022-12-22T07:05:30.448Z,1.70
2022-12-22T07:08:02.548Z,1.52
2022-12-22T07:10:52.156Z,1.60
2022-12-22T07:13:19.733Z,1.92
2022-12-22T07:15:52.158Z,1.60
2022-12-22T07:18:22.978Z,1.70
2022-12-22T07:20:50.306Z,1.65
2022-12-22T07:23:17.466Z,2.20
2022-12-22T07:25:44.627Z,1.98
2022-12-22T07:28:18.380Z,1.95
2022-12-22T07:30:47.903Z,2.22
2022-12-22T07:33:15.068Z,2.10
2022-12-22T07:35:42.275Z,2.97
2022-12-22T07:38:09.541Z,2.33
2022-12-22T07:40:41.607Z,1.63
2022-12-22T07:45:36.728Z,1.45
2022-12-22T07:48:24.689Z,1.83
2022-12-22T07:50:51.917Z,2.75
2022-12-22T07:53:19.424Z,2.00
2022-12-22T07:55:46.668Z,3.08
2022-12-22T07:58:13.829Z,2.03
2022-12-22T08:00:41.068Z,2.72
2022-12-22T08:03:08.416Z,1.70
2022-12-22T08:05:37.928Z,1.98
2022-12-22T08:08:05.223Z,1.60
2022-12-22T08:10:32.846Z,0.95
2022-12-22T08:13:00.137Z,0.65
2022-12-22T08:15:27.382Z,0.75
2022-12-22T08:17:54.685Z,0.68
2022-12-22T08:20:21.911Z,0.65
2022-12-22T08:22:49.121Z,0.60
2022-12-22T08:25:16.436Z,0.65
2022-12-22T08:27:47.992Z,0.50
2022-12-22T08:30:15.219Z,0.45
2022-12-22T08:32:43.232Z,0.32
2022-12-22T08:35:11.031Z,0.30
2022-12-22T08:37:41.412Z,0.28
2022-12-22T08:40:10.337Z,0.20
2022-12-22T08:42:37.759Z,0.40
2022-12-22T08:45:05.889Z,0.30
2022-12-22T08:47:33.136Z,0.30
2022-12-22T08:50:00.399Z,0.40
2022-12-22T08:52:27.639Z,0.20
2022-12-22T08:54:54.797Z,0.40
2022-12-22T08:57:21.920Z,0.20
2022-12-22T08:59:49.156Z,0.40
2022-12-22T09:02:16.483Z,0.32
2022-12-22T09:04:43.790Z,0.45
2022-12-22T09:07:11.560Z,0.40
2022-12-22T09:09:38.853Z,0.40
2022-12-22T09:12:06.245Z,0.47
2022-12-22T09:14:33.630Z,1.55
2022-12-22T09:17:01.048Z,0.60
2022-12-22T09:19:28.423Z,0.75
2022-12-22T09:21:55.852Z,1.20
2022-12-22T09:24:23.217Z,1.67
2022-12-22T09:26:50.395Z,2.22
2022-12-22T09:29:17.604Z,1.90
2022-12-22T09:31:45.203Z,1.85
2022-12-22T09:34:17.702Z,2.05
2022-12-22T09:36:46.053Z,3.42
2022-12-22T09:39:13.287Z,3.22
2022-12-22T09:41:48.166Z,4.38
2022-12-22T09:44:21.639Z,4.78
2022-12-22T09:46:49.240Z,5.32
2022-12-22T09:49:17.671Z,5.35
2022-12-22T09:51:47.175Z,7.72
2022-12-22T09:54:14.775Z,6.80
2022-12-22T09:56:41.954Z,8.15
2022-12-22T09:59:13.375Z,5.13
2022-12-22T10:01:58.235Z,4.85
2022-12-22T10:04:43.675Z,6.10
2022-12-22T10:07:26.048Z,3.50
2022-12-22T10:09:53.268Z,4.15
2022-12-22T10:12:21.951Z,4.55
2022-12-22T10:14:50.316Z,4.05
2022-12-22T10:17:20.458Z,3.17
2022-12-22T10:19:48.432Z,3.90
2022-12-22T10:22:26.652Z,3.65
2022-12-22T10:24:54.327Z,4.15
2022-12-22T10:27:29.265Z,4.35
2022-12-22T10:30:16.652Z,4.97
2022-12-22T10:32:43.881Z,5.40
2022-12-22T10:35:11.090Z,6.32
2022-12-22T10:37:40.772Z,6.57
2022-12-22T10:40:20.611Z,5.88
2022-12-22T10:42:48.791Z,6.25
2022-12-22T10:45:34.671Z,6.47
2022-12-22T10:48:02.444Z,5.38
2022-12-22T10:50:29.624Z,5.90
2022-12-22T10:52:57.673Z,5.93
2022-12-22T10:55:29.231Z,6.53
2022-12-22T10:58:11.541Z,5.13
2022-12-22T11:00:39.353Z,7.63
2022-12-22T11:03:08.146Z,5.93
2022-12-22T11:05:35.435Z,7.55
2022-12-22T11:08:12.145Z,5.85
2022-12-22T11:10:51.820Z,10.77
2022-12-22T11:13:18.976Z,6.25
2022-12-22T11:15:58.398Z,6.70
2022-12-22T11:18:45.652Z,7.30
2022-12-22T11:21:31.386Z,8.18
2022-12-22T11:24:13.908Z,7.40
2022-12-22T11:26:47.173Z,12.15
2022-12-22T11:29:34.945Z,7.97
2022-12-22T11:32:11.151Z,6.93
2022-12-22T11:34:57.667Z,7.45
2022-12-22T11:37:27.926Z,7.55
2022-12-22T11:39:59.261Z,10.00
2022-12-22T11:42:36.004Z,8.48
2022-12-22T11:45:21.797Z,7.18
2022-12-22T11:48:00.160Z,6.85
2022-12-22T11:50:57.663Z,10.10
2022-12-22T11:53:46.220Z,9.98
2022-12-22T11:56:16.208Z,11.20
2022-12-22T11:58:56.016Z,9.02
2022-12-22T12:01:29.208Z,10.40
2022-12-22T12:03:59.629Z,11.65
2022-12-22T12:06:39.074Z,12.07
2022-12-22T12:09:15.057Z,10.00
2022-12-22T12:11:47.979Z,9.95
2022-12-22T12:14:21.333Z,12.52
2022-12-22T12:16:53.338Z,9.15
2022-12-22T12:19:26.565Z,10.48
2022-12-22T12:21:59.097Z,11.35
2022-12-22T12:24:26.310Z,11.98
2022-12-22T12:27:09.048Z,10.65
2022-12-22T12:29:36.174Z,10.57
2022-12-22T12:32:12.685Z,10.27
2022-12-22T12:34:42.925Z,8.65
2022-12-22T12:37:13.284Z,9.13
2022-12-22T12:39:47.815Z,10.63
2022-12-22T12:42:18.033Z,8.63
2022-12-22T12:44:45.952Z,7.40
2022-12-22T12:47:25.338Z,8.70
2022-12-22T12:49:59.680Z,7.97
2022-12-22T12:52:59.157Z,8.55
2022-12-22T12:55:33.345Z,8.60
2022-12-22T12:58:03.352Z,7.00
2022-12-22T13:00:38.538Z,6.40
2022-12-22T13:03:25.315Z,6.68
2022-12-22T13:06:02.794Z,4.80
2022-12-22T13:08:53.316Z,6.03
2022-12-22T13:12:11.700Z,5.50
2022-12-22T13:14:58.690Z,6.43
2022-12-22T13:17:42.024Z,7.18
2022-12-22T13:20:15.730Z,8.20
2022-12-22T13:22:43.999Z,7.85
2022-12-22T13:25:17.585Z,7.03
2022-12-22T13:27:44.777Z,7.93
2022-12-22T13:30:20.076Z,7.28
2022-12-22T13:32:49.098Z,8.68
2022-12-22T13:35:38.662Z,7.65
2022-12-22T13:38:06.844Z,10.20
2022-12-22T13:40:44.048Z,8.48
2022-12-22T13:43:15.860Z,9.00
2022-12-22T13:45:44.679Z,8.87
2022-12-22T13:48:22.752Z,7.90
2022-12-22T13:50:52.996Z,6.68
2022-12-22T13:53:49.930Z,6.95
2022-12-22T13:56:14.683Z,8.23
2022-12-22T13:58:45.318Z,6.23
2022-12-22T14:01:12.609Z,5.28
2022-12-22T14:03:59.567Z,5.72
2022-12-22T14:06:29.197Z,4.50
2022-12-22T14:09:12.163Z,4.57
2022-12-22T14:14:10.125Z,4.50
2022-12-22T14:16:43.422Z,5.55
2022-12-22T14:19:12.512Z,7.68
2022-12-22T14:21:40.718Z,7.07
2022-12-22T14:24:11.757Z,5.32
2022-12-22T14:26:38.986Z,6.28
2022-12-22T14:29:10.935Z,5.53
2022-12-22T14:31:51.270Z,6.55
2022-12-22T14:34:29.071Z,5.82
2022-12-22T14:36:58.577Z,6.22
2022-12-22T14:39:26.985Z,6.72
2022-12-22T14:41:55.578Z,5.78
2022-12-22T14:44:30.191Z,6.68
2022-12-22T14:47:14.902Z,5.78
2022-12-22T14:49:46.000Z,7.97
2022-12-22T14:52:21.826Z,6.80
2022-12-22T14:54:50.350Z,6.07
2022-12-22T14:57:20.583Z,6.50
2022-12-22T15:00:01.518Z,6.35
2022-12-22T15:02:39.251Z,5.00
2022-12-22T15:05:16.201Z,6.05
2022-12-22T15:10:43.251Z,6.88
2022-12-22T15:13:13.263Z,5.72
2022-12-22T15:15:40.484Z,5.85
2022-12-22T15:18:07.690Z,6.68
2022-12-22T15:20:39.421Z,5.35
2022-12-22T15:23:16.953Z,4.78
2022-12-22T15:25:44.543Z,4.78
2022-12-22T15:28:11.760Z,5.95
2022-12-22T15:30:39.031Z,5.90
2022-12-22T15:33:11.314Z,4.40
2022-12-22T15:35:38.500Z,6.28
2022-12-22T15:38:10.418Z,5.25
2022-12-22T15:40:37.643Z,5.90
2022-12-22T15:43:04.894Z,3.83
2022-12-22T15:45:32.170Z,4.22
2022-12-22T15:47:59.531Z,4.22
2022-12-22T15:50:33.519Z,4.85
2022-12-22T15:53:05.011Z,3.65
2022-12-22T15:55:32.473Z,3.15
2022-12-22T15:57:59.920Z,4.25
2022-12-22T16:00:27.139Z,4.15
2022-12-22T16:02:54.513Z,5.00
2022-12-22T16:05:22.001Z,3.88
2022-12-22T16:07:49.279Z,4.45
2022-12-22T16:10:34.967Z,4.53
2022-12-22T16:13:03.865Z,4.25
2022-12-22T16:15:32.580Z,3.28
2022-12-22T16:18:00.477Z,4.90
2022-12-22T16:20:33.017Z,3.83
2022-12-22T16:23:05.118Z,3.45
2022-12-22T16:25:34.057Z,4.03
2022-12-22T16:28:01.808Z,3.70
2022-12-22T16:30:30.883Z,3.63
2022-12-22T16:32:58.105Z,4.40
2022-12-22T16:35:26.677Z,3.38
2022-12-22T16:37:56.335Z,4.05
2022-12-22T16:40:23.581Z,4.25
2022-12-22T16:45:44.859Z,3.58
2022-12-22T16:48:35.329Z,2.40
2022-12-22T16:51:02.569Z,4.22
2022-12-22T16:53:29.750Z,2.88
2022-12-22T16:55:56.969Z,3.13
2022-12-22T16:58:24.119Z,2.50
2022-12-22T17:00:51.364Z,3.40
2022-12-22T17:03:38.426Z,3.35
2022-12-22T17:06:05.833Z,2.50
2022-12-22T17:08:35.224Z,3.85
2022-12-22T17:11:10.158Z,3.10
2022-12-22T17:13:38.465Z,2.00
2022-12-22T17:16:06.101Z,1.75
2022-12-22T17:18:33.946Z,2.28
2022-12-22T17:21:01.408Z,3.10
2022-12-22T17:23:28.672Z,1.88
2022-12-22T17:25:55.914Z,2.45
2022-12-22T17:28:23.123Z,3.10
2022-12-22T17:30:50.524Z,2.13
2022-12-22T17:33:18.181Z,1.77
2022-12-22T17:35:46.594Z,1.52
2022-12-22T17:38:15.108Z,1.65
2022-12-22T17:40:42.430Z,1.80
2022-12-22T17:43:16.671Z,2.58
2022-12-22T17:45:45.955Z,1.00
2022-12-22T17:48:13.602Z,1.83
2022-12-22T17:50:41.743Z,2.08
2022-12-22T17:53:14.875Z,2.10
2022-12-22T17:58:29.373Z,3.50
2022-12-22T18:00:56.579Z,2.30
2022-12-22T18:03:23.910Z,2.10
2022-12-22T18:05:51.220Z,3.53
2022-12-22T18:08:20.269Z,2.20
2022-12-22T18:10:48.555Z,4.47
2022-12-22T18:13:17.168Z,4.15
2022-12-22T18:15:44.388Z,2.03
2022-12-22T18:18:14.002Z,2.05
2022-12-22T18:20:41.359Z,1.88
2022-12-22T18:23:12.705Z,2.78
2022-12-22T18:25:40.533Z,2.22
2022-12-22T18:28:12.556Z,2.80
2022-12-22T18:30:39.745Z,2.35
2022-12-22T18:33:07.002Z,2.67
2022-12-22T18:35:34.627Z,3.03
2022-12-22T18:38:01.874Z,2.20
2022-12-22T18:40:33.346Z,1.70
2022-12-22T18:43:01.660Z,2.35
2022-12-22T18:45:30.273Z,2.05
2022-12-22T18:47:57.856Z,3.00
2022-12-22T18:50:26.588Z,2.50
2022-12-22T18:52:54.226Z,2.85
2022-12-22T18:55:22.817Z,2.17
2022-12-22T18:57:50.522Z,3.30
2022-12-22T19:00:18.913Z,2.97
2022-12-22T19:02:47.140Z,3.65
2022-12-22T19:05:16.140Z,4.53
2022-12-22T19:07:43.324Z,3.10
2022-12-22T19:10:16.517Z,3.90
2022-12-22T19:12:44.007Z,3.55
2022-12-22T19:15:19.234Z,3.70
2022-12-22T19:17:46.424Z,3.47
2022-12-22T19:20:17.712Z,3.00
2022-12-22T19:22:45.469Z,2.90
2022-12-22T19:25:23.130Z,3.83
2022-12-22T19:27:53.076Z,4.38
2022-12-22T19:30:23.901Z,3.33
2022-12-22T19:33:02.514Z,3.22
2022-12-22T19:35:31.210Z,2.67
2022-12-22T19:38:00.552Z,2.88
2022-12-22T19:40:32.660Z,3.58
2022-12-22T19:43:00.139Z,3.55
2022-12-22T19:45:29.508Z,2.83
2022-12-22T19:47:57.590Z,2.60
2022-12-22T19:50:27.471Z,3.05
2022-12-22T19:52:55.370Z,3.30
2022-12-22T19:55:24.549Z,2.17
2022-12-22T19:57:52.603Z,2.95
2022-12-22T20:00:23.530Z,2.67
2022-12-22T20:02:52.287Z,1.92
2022-12-22T20:05:22.381Z,3.28
2022-12-22T20:07:50.469Z,3.15
2022-12-22T20:10:17.749Z,2.75
2022-12-22T20:12:46.603Z,3.15
2022-12-22T20:15:18.433Z,2.30
2022-12-22T20:17:46.030Z,3.10
2022-12-22T20:20:17.673Z,2.50
2022-12-22T20:22:46.900Z,2.97
2022-12-22T20:25:21.926Z,2.60
2022-12-22T20:27:49.578Z,3.15
2022-12-22T20:30:18.162Z,4.75
2022-12-22T20:32:45.362Z,2.97
2022-12-22T20:35:12.806Z,3.30
2022-12-22T20:37:40.142Z,3.00
2022-12-22T20:40:33.636Z,3.05
2022-12-22T20:43:00.798Z,2.90
2022-12-22T20:45:30.216Z,2.28
2022-12-22T20:47:58.638Z,3.08
2022-12-22T20:50:27.898Z,3.33
2022-12-22T20:52:55.498Z,2.70
2022-12-22T20:55:24.535Z,5.30
2022-12-22T20:57:52.019Z,3.17
2022-12-22T21:00:29.192Z,3.55
2022-12-22T21:02:56.481Z,3.70
2022-12-22T21:05:23.828Z,2.30
2022-12-22T21:07:51.056Z,2.22
2022-12-22T21:10:19.541Z,1.80
2022-12-22T21:12:46.785Z,2.55
2022-12-22T21:15:18.300Z,3.45
2022-12-22T21:17:46.363Z,3.20
2022-12-22T21:20:22.078Z,3.90
2022-12-22T21:22:49.561Z,2.40
2022-12-22T21:25:16.858Z,3.88
2022-12-22T21:27:45.652Z,3.80
2022-12-22T21:30:16.605Z,3.65
2022-12-22T21:32:43.921Z,3.80
2022-12-22T21:35:14.944Z,3.22
2022-12-22T21:37:42.762Z,2.33
2022-12-22T21:40:17.030Z,3.45
2022-12-22T21:42:44.211Z,2.88
2022-12-22T21:45:18.266Z,4.57
2022-12-22T21:47:45.747Z,2.65
2022-12-22T21:50:20.901Z,3.20
2022-12-22T21:52:51.314Z,2.08
2022-12-22T21:55:38.253Z,2.45
2022-12-22T21:58:06.422Z,3.33
2022-12-22T22:00:34.847Z,1.50
2022-12-22T22:03:02.778Z,2.40
2022-12-22T22:05:30.000Z,2.05
2022-12-22T22:07:58.095Z,2.13
2022-12-22T22:10:28.747Z,2.65
2022-12-22T22:12:56.093Z,3.92
2022-12-22T22:15:24.083Z,3.47
2022-12-22T22:17:51.355Z,1.85
2022-12-22T22:20:20.015Z,2.08
2022-12-22T22:22:47.755Z,1.77
2022-12-22T22:25:15.991Z,2.00
2022-12-22T22:27:47.629Z,3.00
2022-12-22T22:30:16.957Z,3.30
2022-12-22T22:32:44.466Z,1.90
2022-12-22T22:35:12.334Z,1.77
2022-12-22T22:37:39.997Z,1.92
2022-12-22T22:40:09.698Z,1.55
2022-12-22T22:42:37.665Z,1.83
2022-12-22T22:45:05.916Z,2.45
2022-12-22T22:47:33.136Z,1.42
2022-12-22T22:50:00.472Z,1.75
2022-12-22T22:52:27.610Z,1.95
2022-12-22T22:54:54.769Z,1.90
2022-12-22T22:57:21.943Z,1.98
2022-12-22T22:59:49.111Z,2.03
2022-12-22T23:02:16.563Z,1.58
2022-12-22T23:04:44.257Z,1.50
2022-12-22T23:07:11.506Z,2.08
2022-12-22T23:09:39.174Z,1.25
2022-12-22T23:12:06.707Z,1.67
2022-12-22T23:14:33.886Z,1.50
2022-12-22T23:17:01.108Z,1.35
2022-12-22T23:19:28.331Z,1.50
2022-12-22T23:21:55.476Z,1.20
2022-12-22T23:24:22.745Z,1.17
2022-12-22T23:26:50.046Z,1.30
2022-12-22T23:29:17.187Z,1.13
2022-12-22T23:31:44.403Z,1.60
2022-12-22T23:34:12.603Z,1.08
2022-12-22T23:36:39.790Z,1.88
2022-12-22T23:39:07.016Z,1.33
2022-12-22T23:41:34.463Z,1.25
2022-12-22T23:44:01.653Z,1.75
2022-12-22T23:46:28.921Z,0.93
2022-12-22T23:48:57.467Z,1.23
2022-12-22T23:51:26.888Z,1.33
2022-12-22T23:53:55.122Z,1.30
2022-12-22T23:56:22.331Z,0.80
2022-12-22T23:58:54.519Z,0.98
